Time;durP1;ratioP1;P1;durP2;ratioP2;P2;SDS_P1;SDS_P2;PMS_P1;PMS_P2;Temp;Humidity;BMP_temperature;BMP_pressure;BME280_temperature;BME280_humidity;BME280_pressure;Samples;Min_cycle;Max_cycle;Signal;HPM_P1;HPM_P2
2022/04/15 00:02:09;;;;;;;2.93;0.87;;;;;;;11.25;100.00;100863.09;5010879;28;20465;-78
2022/04/15 00:04:37;;;;;;;0.30;0.20;;;;;;;11.11;100.00;100862.50;5022972;28;20835;-78
2022/04/15 00:07:04;;;;;;;0.30;0.20;;;;;;;11.24;100.00;100864.88;5018778;28;20954;-78
2022/04/15 00:09:31;;;;;;;0.90;0.90;;;;;;;11.22;100.00;100861.34;5033083;28;20506;-78
2022/04/15 00:12:00;;;;;;;0.40;0.40;;;;;;;11.28;100.00;100882.50;5020813;28;20941;-78
2022/04/15 00:14:26;;;;;;;0.40;0.30;;;;;;;11.08;100.00;100871.41;5033128;28;20475;-78
2022/04/15 00:16:53;;;;;;;0.30;0.30;;;;;;;11.01;100.00;100868.94;5012644;28;20512;-78
2022/04/15 00:19:20;;;;;;;0.60;0.60;;;;;;;10.96;100.00;100875.22;5011976;28;20456;-78
2022/04/15 00:21:46;;;;;;;0.30;0.20;;;;;;;10.73;100.00;100864.19;5011230;28;20534;-78
2022/04/15 00:24:13;;;;;;;0.30;0.20;;;;;;;10.77;100.00;100875.63;5019205;28;20477;-78
2022/04/15 00:26:40;;;;;;;2.50;2.30;;;;;;;10.77;100.00;100867.66;5018156;28;20444;-78
2022/04/15 00:29:06;;;;;;;0.30;0.30;;;;;;;10.61;100.00;100859.09;5032331;28;20494;-78
2022/04/15 00:31:34;;;;;;;0.40;0.40;;;;;;;10.63;100.00;100873.22;5031651;28;20449;-78
2022/04/15 00:34:03;;;;;;;0.87;0.87;;;;;;;10.45;100.00;100868.28;5017744;28;20472;-78
2022/04/15 00:36:30;;;;;;;0.40;0.30;;;;;;;10.48;100.00;100862.91;5014307;28;20891;-77
2022/04/15 00:38:57;;;;;;;1.13;1.13;;;;;;;10.28;100.00;100866.81;5018089;28;20495;-78
2022/04/15 00:41:23;;;;;;;0.40;0.37;;;;;;;10.20;100.00;100876.66;5030939;28;20452;-78
2022/04/15 00:43:55;;;;;;;0.30;0.20;;;;;;;10.26;100.00;100873.03;5016636;28;20476;-78
2022/04/15 00:46:21;;;;;;;0.30;0.20;;;;;;;10.38;100.00;100876.34;5006573;28;20448;-78
2022/04/15 00:48:48;;;;;;;1.50;1.47;;;;;;;10.26;100.00;100879.22;5052329;28;20451;-78
2022/04/15 00:51:15;;;;;;;0.30;0.20;;;;;;;10.22;100.00;100874.88;5025419;28;20507;-78
2022/04/15 00:53:44;;;;;;;0.30;0.20;;;;;;;10.10;100.00;100875.94;5022494;28;20469;-78
2022/04/15 00:56:12;;;;;;;0.30;0.20;;;;;;;10.17;100.00;100876.72;5026753;28;20455;-78
2022/04/15 00:58:40;;;;;;;0.30;0.20;;;;;;;10.22;100.00;100868.69;5035953;28;20494;-78
2022/04/15 01:01:08;;;;;;;0.30;0.20;;;;;;;10.12;100.00;100875.91;5026731;28;20949;-78
2022/04/15 01:03:36;;;;;;;0.40;0.37;;;;;;;10.15;100.00;100883.84;5024916;28;20506;-78
2022/04/15 01:06:05;;;;;;;0.40;0.30;;;;;;;10.19;100.00;100880.22;5025061;28;20832;-78
2022/04/15 01:08:32;;;;;;;0.40;0.30;;;;;;;10.04;100.00;100883.13;5013759;28;20457;-78
2022/04/15 01:11:02;;;;;;;0.37;0.30;;;;;;;9.72;100.00;100868.59;5004627;28;20556;-78
2022/04/15 01:13:38;;;;;;;0.30;0.20;;;;;;;9.93;100.00;100885.09;5012084;28;20476;-78
2022/04/15 01:16:06;;;;;;;0.30;0.20;;;;;;;9.89;100.00;100891.34;5003015;28;20453;-78
2022/04/15 01:18:33;;;;;;;0.30;0.20;;;;;;;9.95;100.00;100893.91;5006826;28;20899;-78
2022/04/15 01:21:00;;;;;;;0.40;0.30;;;;;;;9.64;100.00;100877.59;5005536;28;20444;-78
2022/04/15 01:23:27;;;;;;;0.30;0.20;;;;;;;9.63;100.00;100865.22;5011860;28;20488;-78
2022/04/15 01:25:54;;;;;;;0.93;0.93;;;;;;;9.66;100.00;100886.41;5014536;28;20456;-78
2022/04/15 01:28:21;;;;;;;0.30;0.20;;;;;;;9.78;100.00;100892.41;4999792;28;20483;-78
2022/04/15 01:30:48;;;;;;;0.87;0.87;;;;;;;9.92;100.00;100892.19;5012531;28;20484;-78
2022/04/15 01:33:14;;;;;;;0.40;0.20;;;;;;;9.77;100.00;100880.03;5000869;28;20789;-78
2022/04/15 01:35:47;;;;;;;0.40;0.30;;;;;;;9.72;100.00;100900.44;5003792;28;20447;-78
2022/04/15 01:38:17;;;;;;;3.07;0.50;;;;;;;9.67;100.00;100898.78;5013044;28;20444;-78
2022/04/15 01:40:45;;;;;;;0.50;0.43;;;;;;;9.58;100.00;100888.28;5012726;28;20459;-78
2022/04/15 01:43:12;;;;;;;0.30;0.20;;;;;;;9.44;100.00;100894.66;5004721;28;20480;-78
2022/04/15 01:45:39;;;;;;;0.30;0.20;;;;;;;9.56;100.00;100876.81;5007611;28;20514;-78
2022/04/15 01:48:06;;;;;;;0.30;0.20;;;;;;;9.73;100.00;100902.22;5002511;28;20838;-78
2022/04/15 01:50:32;;;;;;;0.30;0.20;;;;;;;9.59;100.00;100909.47;5002625;28;20492;-78
2022/04/15 01:52:59;;;;;;;0.30;0.20;;;;;;;9.69;100.00;100900.50;5004102;28;20876;-78
2022/04/15 01:55:27;;;;;;;0.50;0.50;;;;;;;9.58;100.00;100904.19;4994662;28;20538;-78
2022/04/15 01:57:54;;;;;;;0.30;0.20;;;;;;;9.53;100.00;100898.09;5020823;28;20449;-77
2022/04/15 02:00:22;;;;;;;0.30;0.20;;;;;;;9.61;100.00;100898.88;5015546;28;20462;-78
2022/04/15 02:02:48;;;;;;;0.37;0.30;;;;;;;9.47;100.00;100899.06;5003423;28;20503;-78
2022/04/15 02:05:15;;;;;;;0.40;0.30;;;;;;;9.49;100.00;100899.94;5008833;28;20474;-78
2022/04/15 02:07:42;;;;;;;0.30;0.20;;;;;;;9.35;100.00;100896.59;5013781;28;20448;-78
2022/04/15 02:10:09;;;;;;;0.73;0.73;;;;;;;9.56;100.00;100903.34;5027906;28;20889;-78
2022/04/15 02:12:36;;;;;;;0.30;0.20;;;;;;;9.39;100.00;100904.47;5010226;28;20457;-77
2022/04/15 02:15:03;;;;;;;0.30;0.20;;;;;;;9.42;100.00;100912.38;5021297;28;21151;-78
2022/04/15 02:17:30;;;;;;;0.30;0.20;;;;;;;9.23;100.00;100900.28;5022260;28;20448;-78
2022/04/15 02:19:57;;;;;;;1.23;1.13;;;;;;;9.24;100.00;100910.00;4998939;28;20877;-79
2022/04/15 02:22:23;;;;;;;1.27;1.17;;;;;;;9.23;100.00;100915.31;5008119;28;20456;-79
2022/04/15 02:24:50;;;;;;;0.60;0.60;;;;;;;9.25;100.00;100919.69;5013468;28;20826;-79
2022/04/15 02:27:17;;;;;;;0.40;0.30;;;;;;;9.20;100.00;100903.84;5048679;28;20447;-79
2022/04/15 02:29:43;;;;;;;0.30;0.30;;;;;;;9.23;100.00;100923.28;5010682;28;20485;-78
2022/04/15 02:32:10;;;;;;;0.90;0.90;;;;;;;9.15;100.00;100910.09;5005012;28;20464;-79
2022/04/15 02:34:37;;;;;;;0.30;0.20;;;;;;;9.04;100.00;100912.88;5013655;28;20503;-79
2022/04/15 02:37:04;;;;;;;0.30;0.20;;;;;;;9.04;100.00;100920.84;5024189;28;20440;-79
2022/04/15 02:39:32;;;;;;;1.17;1.17;;;;;;;9.09;100.00;100919.03;5020563;28;20452;-78
2022/04/15 02:42:00;;;;;;;2.40;0.83;;;;;;;9.18;100.00;100910.97;5020833;28;20527;-78
2022/04/15 02:44:29;;;;;;;0.30;0.20;;;;;;;9.22;100.00;100922.41;5001067;28;20483;-78
2022/04/15 02:46:58;;;;;;;2.50;2.40;;;;;;;8.95;100.00;100923.63;5003223;28;20500;-79
2022/04/15 02:49:26;;;;;;;0.53;0.53;;;;;;;9.03;100.00;100931.47;5000366;28;20457;-79
2022/04/15 02:51:54;;;;;;;0.40;0.30;;;;;;;8.95;100.00;100923.63;5000422;28;20469;-78
2022/04/15 02:54:21;;;;;;;0.83;0.83;;;;;;;8.84;100.00;100928.16;5028266;28;20883;-78
2022/04/15 02:56:47;;;;;;;0.30;0.20;;;;;;;8.91;100.00;100932.50;5033814;28;20489;-78
2022/04/15 02:59:16;;;;;;;0.30;0.20;;;;;;;8.97;100.00;100935.06;5006144;28;20453;-78
2022/04/15 03:01:45;;;;;;;0.87;0.73;;;;;;;8.71;100.00;100908.88;5020859;28;20458;-78
2022/04/15 03:04:12;;;;;;;0.73;0.73;;;;;;;8.75;100.00;100926.47;5026557;28;20464;-78
2022/04/15 03:06:38;;;;;;;0.40;0.30;;;;;;;8.82;100.00;100932.59;5003650;28;20503;-78
2022/04/15 03:09:05;;;;;;;0.30;0.20;;;;;;;8.79;100.00;100930.00;5022732;28;20455;-78
2022/04/15 03:11:32;;;;;;;0.30;0.20;;;;;;;8.75;100.00;100918.53;5017974;28;20900;-78
2022/04/15 03:13:59;;;;;;;0.30;0.20;;;;;;;8.64;100.00;100928.38;5014370;28;20469;-78
2022/04/15 03:16:25;;;;;;;1.13;1.13;;;;;;;8.70;100.00;100920.34;5049697;28;20451;-79
2022/04/15 03:18:52;;;;;;;0.83;0.83;;;;;;;8.81;100.00;100925.53;5016510;28;20452;-78
2022/04/15 03:21:19;;;;;;;0.30;0.20;;;;;;;8.66;100.00;100923.06;5003005;28;20496;-78
2022/04/15 03:23:45;;;;;;;0.33;0.27;;;;;;;8.58;100.00;100924.00;5014895;28;20559;-79
2022/04/15 03:26:12;;;;;;;0.63;0.63;;;;;;;8.69;100.00;100923.91;5030782;28;20471;-79
2022/04/15 03:28:39;;;;;;;0.30;0.20;;;;;;;8.58;100.00;100923.13;5018899;28;20452;-78
2022/04/15 03:31:05;;;;;;;0.30;0.20;;;;;;;8.52;100.00;100921.44;5027463;28;20914;-78
2022/04/15 03:33:37;;;;;;;0.30;0.20;;;;;;;8.56;100.00;100928.44;5011073;28;20501;-78
2022/04/15 03:36:04;;;;;;;0.50;0.50;;;;;;;8.39;100.00;100929.53;5020952;28;20839;-78
2022/04/15 03:38:31;;;;;;;0.40;0.20;;;;;;;8.42;100.00;100935.66;5035820;28;20463;-79
2022/04/15 03:40:58;;;;;;;0.40;0.30;;;;;;;8.32;100.00;100931.28;5030431;28;20456;-79
2022/04/15 03:43:25;;;;;;;0.30;0.20;;;;;;;8.35;100.00;100933.06;5028447;28;20457;-78
2022/04/15 03:45:51;;;;;;;0.87;0.87;;;;;;;8.38;100.00;100938.34;5019233;28;20823;-79
2022/04/15 03:48:18;;;;;;;0.30;0.20;;;;;;;8.30;100.00;100939.25;5023414;28;20474;-78
2022/04/15 03:50:44;;;;;;;0.30;0.20;;;;;;;8.27;100.00;100939.28;5021133;28;20485;-79
2022/04/15 03:53:11;;;;;;;0.30;0.20;;;;;;;8.18;100.00;100944.66;5013526;28;20865;-79
2022/04/15 03:55:38;;;;;;;0.40;0.30;;;;;;;7.95;100.00;100928.97;5024930;28;20456;-78
2022/04/15 03:58:04;;;;;;;0.30;0.20;;;;;;;8.07;100.00;100946.50;5034014;28;20448;-79
2022/04/15 04:00:31;;;;;;;0.80;0.77;;;;;;;8.21;100.00;100949.03;5037699;28;20457;-78
2022/04/15 04:03:01;;;;;;;0.30;0.20;;;;;;;8.10;100.00;100946.50;5057502;28;20489;-78
2022/04/15 04:05:28;;;;;;;0.30;0.20;;;;;;;8.03;100.00;100950.94;5024864;28;21024;-78
2022/04/15 04:07:55;;;;;;;0.47;0.47;;;;;;;8.05;100.00;100955.34;5036431;28;20456;-78
2022/04/15 04:10:22;;;;;;;0.40;0.30;;;;;;;8.02;100.00;100948.31;5025767;28;20554;-78
2022/04/15 04:12:48;;;;;;;0.40;0.40;;;;;;;7.95;100.00;100960.75;5024670;28;20879;-79
2022/04/15 04:15:15;;;;;;;0.30;0.20;;;;;;;7.93;100.00;100953.66;5011913;28;20468;-79
2022/04/15 04:17:42;;;;;;;0.50;0.50;;;;;;;8.05;100.00;100963.31;5025263;28;20452;-78
2022/04/15 04:20:10;;;;;;;0.30;0.20;;;;;;;7.91;100.00;100956.34;5034554;28;20463;-79
2022/04/15 04:22:37;;;;;;;0.77;0.77;;;;;;;7.83;100.00;100968.75;5024120;28;20444;-79
2022/04/15 04:25:08;;;;;;;0.60;0.60;;;;;;;7.96;100.00;100965.13;5031510;28;20476;-77
2022/04/15 04:27:40;;;;;;;0.30;0.20;;;;;;;7.85;100.00;100961.69;5059645;28;20486;-77
2022/04/15 04:30:08;;;;;;;0.30;0.20;;;;;;;7.93;100.00;100970.44;5006638;28;20507;-79
2022/04/15 04:32:35;;;;;;;0.30;0.20;;;;;;;7.66;100.00;100970.59;5021920;28;20810;-78
2022/04/15 04:35:03;;;;;;;0.30;0.20;;;;;;;7.69;100.00;100975.91;5028803;28;20483;-79
2022/04/15 04:37:30;;;;;;;0.60;0.60;;;;;;;7.76;100.00;100984.66;5024007;28;20873;-78
2022/04/15 04:39:57;;;;;;;1.90;1.47;;;;;;;7.68;100.00;100982.97;5031293;28;20486;-79
2022/04/15 04:42:25;;;;;;;0.30;0.20;;;;;;;7.80;100.00;100979.34;5027964;28;20437;-78
2022/04/15 04:44:52;;;;;;;0.30;0.20;;;;;;;7.71;100.00;100974.13;5014529;28;20485;-79
2022/04/15 04:47:20;;;;;;;0.50;0.50;;;;;;;7.81;100.00;100993.44;5021454;28;20467;-79
2022/04/15 04:49:48;;;;;;;0.30;0.20;;;;;;;7.77;100.00;100989.06;5049867;28;20453;-79
2022/04/15 04:52:15;;;;;;;0.30;0.20;;;;;;;7.86;100.00;100997.84;5022910;28;20481;-78
2022/04/15 04:54:41;;;;;;;0.30;0.20;;;;;;;7.77;100.00;100989.06;5024219;28;20534;-79
2022/04/15 04:57:08;;;;;;;0.30;0.20;;;;;;;7.90;100.00;100990.75;5034360;28;20480;-78
2022/04/15 04:59:35;;;;;;;0.30;0.20;;;;;;;7.83;100.00;101005.81;5023528;28;20473;-78
2022/04/15 05:02:02;;;;;;;0.30;0.20;;;;;;;7.88;100.00;100997.84;5018139;28;20519;-78
2022/04/15 05:04:28;;;;;;;0.40;0.40;;;;;;;7.91;100.00;100996.03;5016949;28;20464;-79
2022/04/15 05:06:55;;;;;;;0.30;0.20;;;;;;;7.99;100.00;100998.66;5009290;28;20441;-79
2022/04/15 05:09:22;;;;;;;0.93;0.87;;;;;;;8.00;100.00;100996.00;5033579;28;20447;-79
2022/04/15 05:11:49;;;;;;;0.30;0.20;;;;;;;8.13;100.00;101007.38;5014067;28;20484;-79
2022/04/15 05:14:17;;;;;;;0.30;0.20;;;;;;;8.23;100.00;101005.56;5055478;28;20491;-79
2022/04/15 05:16:44;;;;;;;0.30;0.20;;;;;;;8.43;100.00;101016.00;5025184;28;20448;-79
2022/04/15 05:19:10;;;;;;;0.30;0.20;;;;;;;8.51;100.00;101009.75;5030515;28;20483;-79
2022/04/15 05:21:38;;;;;;;0.30;0.20;;;;;;;8.72;100.00;101016.63;5008511;28;20500;-79
2022/04/15 05:24:07;;;;;;;0.30;0.20;;;;;;;8.81;100.00;101010.38;5042409;28;20460;-79
2022/04/15 05:26:34;;;;;;;0.30;0.20;;;;;;;9.04;100.00;101012.78;5013042;28;20496;-79
2022/04/15 05:29:01;;;;;;;0.30;0.20;;;;;;;9.41;100.00;101018.53;5010229;28;20457;-79
2022/04/15 05:31:28;;;;;;;0.30;0.20;;;;;;;9.66;100.00;101024.44;5005152;28;20515;-79
2022/04/15 05:33:55;;;;;;;0.53;0.53;;;;;;;9.79;100.00;101023.38;5016356;28;20989;-79
2022/04/15 05:36:21;;;;;;;0.83;0.83;;;;;;;10.04;100.00;101023.91;5028302;28;20456;-79
2022/04/15 05:38:48;;;;;;;1.70;1.60;;;;;;;10.29;100.00;101021.81;5020575;28;20479;-78
2022/04/15 05:41:15;;;;;;;0.40;0.40;;;;;;;10.31;100.00;100998.72;5003326;28;20510;-78
2022/04/15 05:43:43;;;;;;;2.17;2.07;;;;;;;10.55;100.00;101026.66;5003129;28;20482;-78
2022/04/15 05:46:10;;;;;;;0.70;0.60;;;;;;;10.59;100.00;101023.94;5030052;28;20965;-79
2022/04/15 05:48:37;;;;;;;4.10;1.53;;;;;;;10.69;100.00;101022.03;5016136;28;20449;-78
2022/04/15 05:51:04;;;;;;;0.30;0.20;;;;;;;10.92;99.34;101035.78;4999081;28;20493;-79
2022/04/15 05:53:32;;;;;;;0.30;0.20;;;;;;;10.92;100.00;101046.41;5009612;28;20846;-78
2022/04/15 05:55:59;;;;;;;0.30;0.20;;;;;;;11.06;100.00;101037.31;5045513;28;20942;-79
2022/04/15 05:58:26;;;;;;;0.30;0.20;;;;;;;11.13;99.68;101038.97;5012653;28;20553;-79
2022/04/15 06:00:54;;;;;;;0.80;0.53;;;;;;;11.36;99.49;101041.16;5001046;28;20867;-79
2022/04/15 06:03:21;;;;;;;0.37;0.30;;;;;;;11.14;100.00;101033.59;5000869;28;20468;-78
2022/04/15 06:05:49;;;;;;;0.30;0.20;;;;;;;11.27;100.00;101042.22;5006413;28;20520;-79
2022/04/15 06:08:16;;;;;;;0.30;0.20;;;;;;;11.35;100.00;101039.41;5006899;28;20510;-79
2022/04/15 06:10:43;;;;;;;0.30;0.20;;;;;;;11.27;100.00;101042.22;5002155;28;20542;-79
2022/04/15 06:13:13;;;;;;;0.53;0.53;;;;;;;11.34;100.00;101042.97;5026276;28;20444;-79
2022/04/15 06:15:51;;;;;;;0.73;0.73;;;;;;;11.53;100.00;101037.28;5014542;28;20527;-78
2022/04/15 06:18:19;;;;;;;0.30;0.20;;;;;;;11.23;100.00;101025.44;5029978;28;21029;-78
2022/04/15 06:20:47;;;;;;;3.60;0.83;;;;;;;11.41;100.00;101037.50;5022986;28;20449;-78
2022/04/15 06:23:15;;;;;;;0.40;0.30;;;;;;;11.53;100.00;101045.25;5008262;28;20453;-78
2022/04/15 06:25:42;;;;;;;0.40;0.40;;;;;;;11.72;100.00;101052.84;5011835;28;20457;-79
2022/04/15 06:28:09;;;;;;;1.47;1.43;;;;;;;11.75;100.00;101047.47;5013002;28;20880;-79
2022/04/15 06:30:36;;;;;;;0.47;0.40;;;;;;;11.87;100.00;101028.59;5036713;28;20852;-79
2022/04/15 06:33:05;;;;;;;0.50;0.50;;;;;;;12.31;100.00;101050.69;5012550;28;20453;-78
2022/04/15 06:35:33;;;;;;;0.50;0.50;;;;;;;12.42;100.00;101043.31;5012600;28;20511;-78
2022/04/15 06:37:59;;;;;;;3.30;2.90;;;;;;;12.63;100.00;101057.94;5012858;28;20453;-78
2022/04/15 06:40:27;;;;;;;0.30;0.20;;;;;;;12.91;100.00;101042.09;5000185;28;20456;-78
2022/04/15 06:42:53;;;;;;;1.63;1.03;;;;;;;12.99;100.00;101051.63;5014370;28;20483;-78
2022/04/15 06:45:23;;;;;;;0.70;0.70;;;;;;;13.13;100.00;101055.72;5013598;28;20507;-77
2022/04/15 06:47:50;;;;;;;3.53;2.43;;;;;;;13.42;100.00;101047.81;5000438;28;20498;-77
2022/04/15 06:50:19;;;;;;;1.27;1.27;;;;;;;13.70;99.70;101055.94;5047504;28;20503;-79
2022/04/15 06:52:46;;;;;;;0.80;0.80;;;;;;;13.67;100.00;101064.03;5034424;28;20560;-78
2022/04/15 06:55:12;;;;;;;12.40;2.87;;;;;;;13.70;100.00;101052.38;5015050;28;20538;-77
2022/04/15 06:57:39;;;;;;;0.40;0.30;;;;;;;13.85;99.52;101058.19;5020277;28;20452;-77
2022/04/15 07:00:08;;;;;;;0.40;0.40;;;;;;;14.03;98.97;101066.56;5016567;28;20487;-78
2022/04/15 07:02:35;;;;;;;0.30;0.20;;;;;;;14.12;99.46;101067.16;5016316;28;20466;-78
2022/04/15 07:05:05;;;;;;;14.93;2.13;;;;;;;14.16;98.99;101065.25;5017036;28;20468;-78
2022/04/15 07:07:33;;;;;;;0.80;0.80;;;;;;;14.47;98.59;101071.41;5018453;28;20539;-78
2022/04/15 07:10:00;;;;;;;0.40;0.20;;;;;;;14.54;96.74;101065.88;5051988;28;20433;-78
2022/04/15 07:12:26;;;;;;;0.53;0.53;;;;;;;14.70;96.01;101070.69;5020539;28;20523;-78
2022/04/15 07:14:53;;;;;;;0.33;0.27;;;;;;;14.78;94.48;101076.63;5050791;28;20527;-77
2022/04/15 07:17:20;;;;;;;3.03;0.53;;;;;;;15.00;94.37;101074.13;5018590;28;20449;-78
2022/04/15 07:19:47;;;;;;;3.70;0.50;;;;;;;15.00;91.71;101074.13;5018153;28;20446;-78
2022/04/15 07:22:19;;;;;;;0.30;0.30;;;;;;;15.16;91.34;101071.78;5017376;28;20496;-78
2022/04/15 07:24:48;;;;;;;0.30;0.20;;;;;;;15.00;91.87;101070.56;5019520;28;20468;-78
2022/04/15 07:27:14;;;;;;;1.97;1.80;;;;;;;15.29;91.37;101077.59;5018896;28;20444;-77
2022/04/15 07:29:41;;;;;;;0.60;0.60;;;;;;;15.20;91.21;101078.78;5019162;28;20502;-78
2022/04/15 07:32:08;;;;;;;2.37;0.97;;;;;;;15.46;89.41;101074.31;5020018;28;20899;-78
2022/04/15 07:34:35;;;;;;;0.30;0.20;;;;;;;15.37;90.13;101084.44;5018255;28;20475;-78
2022/04/15 07:37:03;;;;;;;0.40;0.30;;;;;;;15.45;89.63;101078.78;5018863;28;20456;-78
2022/04/15 07:39:31;;;;;;;1.17;0.70;;;;;;;15.75;88.27;101087.53;5020913;28;20447;-78
2022/04/15 07:41:58;;;;;;;0.67;0.67;;;;;;;15.63;86.33;101086.22;5019689;28;20429;-78
2022/04/15 07:44:25;;;;;;;0.40;0.30;;;;;;;15.41;86.51;101082.53;5018643;28;21085;-77
2022/04/15 07:46:51;;;;;;;1.43;1.33;;;;;;;15.61;86.71;101079.13;5018801;28;20498;-78
2022/04/15 07:49:18;;;;;;;0.30;0.20;;;;;;;15.69;85.41;101091.34;5016809;28;20436;-78
2022/04/15 07:51:44;;;;;;;1.60;1.17;;;;;;;15.94;84.57;101079.69;5015231;28;20515;-78
2022/04/15 07:54:12;;;;;;;0.40;0.30;;;;;;;16.02;84.50;101084.75;5034484;28;20527;-79
2022/04/15 07:56:38;;;;;;;2.20;2.20;;;;;;;15.99;82.57;101093.81;5017914;28;20799;-78
2022/04/15 07:59:06;;;;;;;0.80;0.80;;;;;;;16.00;81.65;101088.38;5002236;28;20938;-78
2022/04/15 08:01:33;;;;;;;0.73;0.73;;;;;;;15.90;83.83;101095.03;5003897;28;20453;-78
2022/04/15 08:04:00;;;;;;;2.20;2.00;;;;;;;15.93;82.07;101088.69;5011065;28;20477;-77
2022/04/15 08:06:30;;;;;;;5.00;0.80;;;;;;;16.03;81.33;101098.09;4997340;28;20418;-78
2022/04/15 08:08:59;;;;;;;0.40;0.20;;;;;;;16.22;80.49;101088.44;4998405;28;20441;-78
2022/04/15 08:11:27;;;;;;;0.30;0.20;;;;;;;16.29;78.62;101097.97;5003240;28;20540;-78
2022/04/15 08:13:55;;;;;;;0.30;0.20;;;;;;;16.43;78.84;101105.47;4997046;28;20469;-78
2022/04/15 08:16:23;;;;;;;3.60;0.80;;;;;;;16.54;77.89;101097.00;5001847;28;20437;-78
2022/04/15 08:18:51;;;;;;;0.30;0.20;;;;;;;16.70;76.48;101099.97;5049709;28;20441;-78
2022/04/15 08:21:18;;;;;;;0.40;0.30;;;;;;;16.63;77.29;101104.69;5015843;28;20938;-78
2022/04/15 08:23:46;;;;;;;0.30;0.20;;;;;;;16.78;76.42;101101.41;5017408;28;20848;-77
2022/04/15 08:26:13;;;;;;;0.30;0.20;;;;;;;16.98;76.77;101099.69;5003304;28;20514;-78
2022/04/15 08:28:40;;;;;;;0.30;0.20;;;;;;;17.02;76.20;101098.66;5029281;28;20479;-78
2022/04/15 08:31:07;;;;;;;1.80;1.07;;;;;;;17.11;76.02;101091.06;5019003;28;20454;-78
2022/04/15 08:33:35;;;;;;;0.40;0.40;;;;;;;17.38;74.99;101104.25;5004378;28;20473;-79
2022/04/15 08:36:02;;;;;;;1.53;1.10;;;;;;;17.42;75.76;101084.38;5027559;28;20886;-78
2022/04/15 08:38:28;;;;;;;0.40;0.30;;;;;;;17.45;73.80;101092.28;5006553;28;20927;-78
2022/04/15 08:40:58;;;;;;;0.43;0.37;;;;;;;17.77;72.20;101104.31;5012459;28;20506;-78
2022/04/15 08:43:26;;;;;;;0.63;0.63;;;;;;;17.84;72.28;101105.81;5028109;28;20991;-78
2022/04/15 08:45:53;;;;;;;2.40;1.70;;;;;;;17.74;71.68;101096.41;5009691;28;20448;-78
2022/04/15 08:48:21;;;;;;;0.40;0.30;;;;;;;17.36;72.58;101095.38;5005503;28;20464;-78
2022/04/15 08:50:48;;;;;;;0.40;0.30;;;;;;;17.85;71.13;101090.53;5019803;28;20441;-77
2022/04/15 08:53:16;;;;;;;2.60;1.63;;;;;;;17.89;71.56;101095.69;5011420;28;20477;-77
2022/04/15 08:55:42;;;;;;;0.40;0.20;;;;;;;17.90;70.44;101092.06;5008714;28;20445;-78
2022/04/15 08:58:09;;;;;;;0.40;0.30;;;;;;;17.75;70.86;101096.34;5007285;28;20503;-78
2022/04/15 09:00:36;;;;;;;0.70;0.67;;;;;;;18.04;69.05;101092.28;4999688;28;21043;-77
2022/04/15 09:03:03;;;;;;;4.67;0.93;;;;;;;18.14;68.97;101091.88;5001586;28;20959;-78
2022/04/15 09:05:30;;;;;;;0.40;0.20;;;;;;;18.16;69.47;101100.75;5007219;28;20474;-78
2022/04/15 09:08:11;;;;;;;0.40;0.20;;;;;;;18.07;66.95;101099.34;5009683;28;21000;-78
2022/04/15 09:10:42;;;;;;;0.50;0.50;;;;;;;18.05;67.30;101109.31;5021631;28;20441;-77
2022/04/15 09:13:20;;;;;;;0.40;0.30;;;;;;;18.09;66.00;101112.72;5013149;28;20530;-77
2022/04/15 09:15:47;;;;;;;0.90;0.90;;;;;;;17.83;66.74;101112.13;5045349;28;20425;-77
2022/04/15 09:18:36;;;;;;;0.40;0.30;;;;;;;18.26;68.07;101107.44;5009313;28;20497;-77
2022/04/15 09:21:24;;;;;;;0.40;0.20;;;;;;;17.96;67.81;101107.94;5007616;28;20503;-77
2022/04/15 09:23:55;;;;;;;0.40;0.30;;;;;;;18.43;66.12;101120.09;5024255;28;20999;-77
2022/04/15 09:26:23;;;;;;;0.40;0.30;;;;;;;18.51;65.98;101116.09;5012475;28;20461;-77
2022/04/15 09:28:51;;;;;;;0.40;0.30;;;;;;;18.25;64.27;101111.09;5001977;28;20946;-77
2022/04/15 09:31:19;;;;;;;0.40;0.20;;;;;;;18.66;64.38;101110.97;4992948;28;20454;-77
2022/04/15 09:33:53;;;;;;;1.23;1.07;;;;;;;18.55;64.01;101106.94;5004689;28;20977;-77
2022/04/15 09:36:31;;;;;;;0.53;0.47;;;;;;;18.61;63.29;101109.31;4995045;28;20441;-77
2022/04/15 09:39:04;;;;;;;0.40;0.27;;;;;;;18.55;61.96;101104.22;5019653;28;20436;-77
2022/04/15 09:41:31;;;;;;;0.30;0.20;;;;;;;18.57;61.16;101109.53;5005201;28;20441;-77
2022/04/15 09:44:00;;;;;;;0.40;0.20;;;;;;;19.09;62.00;101121.34;4994995;28;20465;-77
2022/04/15 09:46:29;;;;;;;0.43;0.43;;;;;;;18.80;62.44;101108.47;5013086;28;20473;-77
2022/04/15 09:49:07;;;;;;;0.40;0.20;;;;;;;19.06;61.02;101112.53;4998944;28;20476;-77
2022/04/15 09:51:44;;;;;;;1.63;0.47;;;;;;;19.20;60.70;101110.88;5024183;28;20480;-78
2022/04/15 09:54:21;;;;;;;0.50;0.43;;;;;;;18.76;62.86;101112.22;5012532;28;20463;-77
2022/04/15 09:56:48;;;;;;;0.40;0.40;;;;;;;19.33;62.65;101108.44;5013571;28;20459;-77
2022/04/15 09:59:15;;;;;;;3.60;0.83;;;;;;;19.27;60.67;101097.94;5000021;28;20437;-77
2022/04/15 10:01:45;;;;;;;0.40;0.30;;;;;;;19.56;59.22;101104.56;4999992;28;20978;-77
2022/04/15 10:04:13;;;;;;;0.40;0.20;;;;;;;19.59;59.68;101107.06;5003853;28;20488;-77
2022/04/15 10:06:41;;;;;;;5.70;0.93;;;;;;;19.33;58.98;101108.44;5008294;28;20503;-77
2022/04/15 10:09:12;;;;;;;0.40;0.20;;;;;;;19.60;58.13;101098.06;5003292;28;20468;-77
2022/04/15 10:11:46;;;;;;;0.40;0.30;;;;;;;19.67;57.97;101095.91;5005172;28;20539;-77
2022/04/15 10:14:16;;;;;;;0.40;0.20;;;;;;;19.90;56.46;101106.34;5002604;28;20949;-77
2022/04/15 10:16:43;;;;;;;0.40;0.20;;;;;;;19.59;58.58;101107.06;5031308;28;20507;-77
2022/04/15 10:19:11;;;;;;;0.40;0.20;;;;;;;18.98;59.69;101090.50;5000203;28;20488;-77
2022/04/15 10:21:41;;;;;;;0.40;0.20;;;;;;;19.24;58.61;101098.13;5006338;28;20515;-77
2022/04/15 10:24:09;;;;;;;0.40;0.30;;;;;;;19.74;58.40;101092.81;5004699;28;20495;-77
2022/04/15 10:26:46;;;;;;;0.40;0.30;;;;;;;20.02;56.39;101092.19;5011815;28;20448;-77
2022/04/15 10:29:13;;;;;;;0.40;0.30;;;;;;;19.92;55.18;101095.44;4998224;28;21002;-77
2022/04/15 10:31:52;;;;;;;0.50;0.40;;;;;;;20.39;55.70;101088.28;5003607;28;20445;-77
2022/04/15 10:34:20;;;;;;;3.63;1.73;;;;;;;20.66;54.21;101085.84;5022062;28;20456;-77
2022/04/15 10:36:48;;;;;;;0.40;0.40;;;;;;;20.45;53.71;101081.69;5015669;28;20441;-77
2022/04/15 10:39:23;;;;;;;0.40;0.20;;;;;;;20.80;53.83;101084.19;5012690;28;20465;-77
2022/04/15 10:41:58;;;;;;;0.40;0.30;;;;;;;20.44;53.10;101087.19;4996029;28;20492;-77
2022/04/15 10:44:44;;;;;;;0.40;0.20;;;;;;;20.65;53.87;101083.25;5008856;28;21010;-77
2022/04/15 10:47:27;;;;;;;0.40;0.20;;;;;;;20.26;53.39;101081.81;5013342;28;20937;-77
2022/04/15 10:50:06;;;;;;;1.00;0.90;;;;;;;20.61;53.40;101087.97;5024594;28;20921;-77
2022/04/15 10:52:34;;;;;;;0.40;0.20;;;;;;;20.34;52.62;101063.38;5007989;28;20475;-76
2022/04/15 10:55:04;;;;;;;0.60;0.60;;;;;;;20.59;51.04;101073.69;5005225;28;20548;-77
2022/04/15 10:57:36;;;;;;;0.40;0.20;;;;;;;20.59;50.56;101075.50;5044834;28;20502;-77
2022/04/15 11:03:28;;;;;;;0.40;0.20;;;;;;;19.92;54.07;101077.44;5004235;28;20437;-77
2022/04/15 11:05:57;;;;;;;0.40;0.20;;;;;;;20.05;54.95;101077.63;5004348;28;20923;-77
2022/04/15 11:08:47;;;;;;;0.40;0.30;;;;;;;20.30;51.53;101077.13;5002017;28;21021;-77
2022/04/15 11:11:14;;;;;;;0.40;0.20;;;;;;;20.20;51.51;101078.59;5015102;28;20527;-77
2022/04/15 11:13:45;;;;;;;0.40;0.20;;;;;;;20.26;52.51;101083.66;5008645;28;20501;-77
2022/04/15 11:16:16;;;;;;;0.40;0.20;;;;;;;20.19;51.87;101077.72;5015730;28;21000;-77
2022/04/15 11:18:43;;;;;;;0.40;0.20;;;;;;;20.61;51.46;101076.28;5022653;28;20932;-77
2022/04/15 11:21:36;;;;;;;0.40;0.20;;;;;;;20.66;51.02;101066.94;5018618;28;20843;-77
2022/04/15 11:24:07;;;;;;;0.40;0.20;;;;;;;20.33;52.97;101075.13;5004196;28;20472;-77
2022/04/15 11:26:37;;;;;;;0.40;0.20;;;;;;;20.42;52.50;101068.34;5005863;28;20530;-77
2022/04/15 11:29:09;;;;;;;0.40;0.20;;;;;;;19.87;53.21;101066.00;5028942;28;20482;-77
2022/04/15 11:31:38;;;;;;;0.40;0.20;;;;;;;20.20;53.32;101078.59;5008822;28;20568;-77
2022/04/15 11:34:11;;;;;;;0.40;0.20;;;;;;;20.35;53.98;101070.50;5012846;28;20488;-77